Time;durP1;ratioP1;P1;durP2;ratioP2;P2;SDS_P1;SDS_P2;PMS_P1;PMS_P2;Temp;Humidity;BMP_temperature;BMP_pressure;BME280_temperature;BME280_humidity;BME280_pressure;Samples;Min_cycle;Max_cycle;Signal;HPM_P1;HPM_P2
2021/10/05 00:01:30;;;;;;;26.97;25.07;;;;;;;;;;5036526;28;20477;-86
2021/10/05 00:03:59;;;;;;;27.13;25.23;;;;;;;;;;5036705;28;20871;-85
2021/10/05 00:06:26;;;;;;;28.17;26.27;;;;;;;;;;5036527;28;20481;-85
2021/10/05 00:08:54;;;;;;;28.17;26.20;;;;;;;;;;5036538;28;20442;-86
2021/10/05 00:11:21;;;;;;;27.77;25.90;;;;;;;;;;5036089;28;20418;-84
2021/10/05 00:13:48;;;;;;;27.70;25.80;;;;;;;;;;5036734;28;20422;-86
2021/10/05 00:16:16;;;;;;;27.40;25.60;;;;;;;;;;5036293;28;20463;-85
2021/10/05 00:18:43;;;;;;;27.10;25.40;;;;;;;;;;5036009;28;20478;-85
2021/10/05 00:21:12;;;;;;;29.17;27.07;;;;;;;;;;5036311;28;20482;-85
2021/10/05 00:23:40;;;;;;;26.80;24.77;;;;;;;;;;5036443;28;20455;-86
2021/10/05 00:26:07;;;;;;;27.10;25.30;;;;;;;;;;5036306;28;20453;-86
2021/10/05 00:28:34;;;;;;;27.90;25.90;;;;;;;;;;5036018;28;20411;-86
2021/10/05 00:31:02;;;;;;;26.83;25.13;;;;;;;;;;5036200;28;20455;-84
2021/10/05 00:33:29;;;;;;;25.23;23.70;;;;;;;;;;5035790;28;20421;-86
2021/10/05 00:35:57;;;;;;;26.10;24.30;;;;;;;;;;5036303;28;20933;-86
2021/10/05 00:38:26;;;;;;;26.13;24.43;;;;;;;;;;5035828;28;20899;-85
2021/10/05 00:40:53;;;;;;;27.03;25.30;;;;;;;;;;5035919;28;20449;-86
2021/10/05 00:43:20;;;;;;;25.53;23.70;;;;;;;;;;5035923;28;20446;-86
2021/10/05 00:45:48;;;;;;;26.23;24.43;;;;;;;;;;5036052;28;20466;-86
2021/10/05 00:48:15;;;;;;;26.93;24.93;;;;;;;;;;5035984;28;20805;-86
2021/10/05 00:50:44;;;;;;;25.33;23.63;;;;;;;;;;5035973;28;20968;-86
2021/10/05 00:53:13;;;;;;;25.70;24.07;;;;;;;;;;5034959;28;20414;-84
2021/10/05 00:55:42;;;;;;;26.30;24.60;;;;;;;;;;5035928;28;20417;-86
2021/10/05 00:58:09;;;;;;;25.90;24.30;;;;;;;;;;5034706;28;20422;-86
2021/10/05 01:00:38;;;;;;;26.93;25.10;;;;;;;;;;5035560;28;20431;-86
2021/10/05 01:03:05;;;;;;;25.50;23.80;;;;;;;;;;5035322;28;20453;-85
2021/10/05 01:05:33;;;;;;;24.20;22.70;;;;;;;;;;5035206;28;20414;-85
2021/10/05 01:08:01;;;;;;;24.60;22.93;;;;;;;;;;5035459;28;21054;-86
2021/10/05 01:10:28;;;;;;;26.37;24.13;;;;;;;;;;5035471;28;20414;-86
2021/10/05 01:12:57;;;;;;;24.63;23.13;;;;;;;;;;5034927;28;20454;-85
2021/10/05 01:15:27;;;;;;;24.53;22.93;;;;;;;;;;5035131;28;20422;-86
2021/10/05 01:17:55;;;;;;;25.43;23.57;;;;;;;;;;5035483;28;20418;-85
2021/10/05 01:20:23;;;;;;;25.70;24.10;;;;;;;;;;5034969;28;20457;-86
2021/10/05 01:22:52;;;;;;;24.67;23.17;;;;;;;;;;5034115;28;20465;-86
2021/10/05 01:25:19;;;;;;;25.40;23.77;;;;;;;;;;5035320;28;20422;-85
2021/10/05 01:27:47;;;;;;;26.90;24.90;;;;;;;;;;5034988;28;20447;-86
2021/10/05 01:30:15;;;;;;;25.53;23.80;;;;;;;;;;5034962;28;20439;-87
2021/10/05 01:32:42;;;;;;;25.67;23.97;;;;;;;;;;5034814;28;20437;-86
2021/10/05 01:35:10;;;;;;;25.37;23.77;;;;;;;;;;5034882;28;20450;-86
2021/10/05 01:37:38;;;;;;;24.77;23.17;;;;;;;;;;5034317;28;20439;-86
2021/10/05 01:40:08;;;;;;;25.17;23.57;;;;;;;;;;5033740;28;20505;-86
2021/10/05 01:42:36;;;;;;;25.00;23.23;;;;;;;;;;5034718;28;20494;-85
2021/10/05 01:45:04;;;;;;;25.33;23.53;;;;;;;;;;5034693;28;20918;-86
2021/10/05 01:47:31;;;;;;;26.80;24.90;;;;;;;;;;5034539;28;20472;-86
2021/10/05 01:49:59;;;;;;;24.47;22.97;;;;;;;;;;5034272;28;20492;-86
2021/10/05 01:52:26;;;;;;;24.67;23.07;;;;;;;;;;5034633;28;20406;-86
2021/10/05 01:54:54;;;;;;;25.07;23.50;;;;;;;;;;5034436;28;20418;-85
2021/10/05 01:57:23;;;;;;;24.70;23.20;;;;;;;;;;5034414;28;20491;-86
2021/10/05 01:59:50;;;;;;;25.80;24.20;;;;;;;;;;5034352;28;20440;-85
2021/10/05 02:02:17;;;;;;;25.47;23.87;;;;;;;;;;5034385;28;20489;-85
2021/10/05 02:04:45;;;;;;;24.53;23.13;;;;;;;;;;5034189;28;20416;-86
2021/10/05 02:07:14;;;;;;;23.97;22.47;;;;;;;;;;5034219;28;20468;-86
2021/10/05 02:09:47;;;;;;;25.87;24.13;;;;;;;;;;5033981;28;20422;-86
2021/10/05 02:12:14;;;;;;;26.23;24.57;;;;;;;;;;5034351;28;20403;-86
2021/10/05 02:14:43;;;;;;;25.20;23.50;;;;;;;;;;5033999;28;20429;-85
2021/10/05 02:17:11;;;;;;;25.70;24.00;;;;;;;;;;5034362;28;20450;-86
2021/10/05 02:19:38;;;;;;;24.57;22.97;;;;;;;;;;5033882;28;20497;-86
2021/10/05 02:22:06;;;;;;;26.17;24.20;;;;;;;;;;5034386;28;21285;-86
2021/10/05 02:24:44;;;;;;;25.93;24.33;;;;;;;;;;5032906;28;20486;-86
2021/10/05 02:27:13;;;;;;;24.57;23.07;;;;;;;;;;5033953;28;20451;-86
2021/10/05 02:29:40;;;;;;;25.37;23.70;;;;;;;;;;5034218;28;20446;-86
2021/10/05 02:32:11;;;;;;;24.97;23.37;;;;;;;;;;5034251;28;20436;-86
2021/10/05 02:34:39;;;;;;;25.73;24.13;;;;;;;;;;5033675;28;20891;-86
2021/10/05 02:37:06;;;;;;;26.33;24.57;;;;;;;;;;5034092;28;20414;-86
2021/10/05 02:39:34;;;;;;;25.23;23.60;;;;;;;;;;5034028;28;20413;-86
2021/10/05 02:42:02;;;;;;;25.70;24.00;;;;;;;;;;5033954;28;20483;-85
2021/10/05 02:44:29;;;;;;;25.40;23.53;;;;;;;;;;5034058;28;20422;-86
2021/10/05 02:46:57;;;;;;;25.60;24.00;;;;;;;;;;5034032;28;20442;-85
2021/10/05 02:49:25;;;;;;;24.73;23.13;;;;;;;;;;5033513;28;20449;-86
2021/10/05 02:51:53;;;;;;;25.63;24.03;;;;;;;;;;5032586;28;20468;-86
2021/10/05 02:54:20;;;;;;;26.73;25.00;;;;;;;;;;5034053;28;20450;-86
2021/10/05 02:56:47;;;;;;;25.60;23.93;;;;;;;;;;5033598;28;20455;-85
2021/10/05 02:59:16;;;;;;;24.37;22.70;;;;;;;;;;5033384;28;20413;-86
2021/10/05 03:01:43;;;;;;;25.17;23.53;;;;;;;;;;5033560;28;20515;-85
2021/10/05 03:04:11;;;;;;;25.17;23.60;;;;;;;;;;5034005;28;20422;-86
2021/10/05 03:06:40;;;;;;;25.07;23.47;;;;;;;;;;5033903;28;20457;-86
2021/10/05 03:09:07;;;;;;;24.67;23.03;;;;;;;;;;5032414;28;20475;-86
2021/10/05 03:11:35;;;;;;;26.13;24.20;;;;;;;;;;5032398;28;20480;-86
2021/10/05 03:14:02;;;;;;;26.17;24.40;;;;;;;;;;5033279;28;20510;-86
2021/10/05 03:16:29;;;;;;;25.93;24.20;;;;;;;;;;5033381;28;20446;-86
2021/10/05 03:18:57;;;;;;;25.97;24.27;;;;;;;;;;5033169;28;20998;-85
2021/10/05 03:21:25;;;;;;;24.93;23.23;;;;;;;;;;5034823;28;20793;-85
2021/10/05 03:23:54;;;;;;;25.73;24.10;;;;;;;;;;5037515;28;20448;-86
2021/10/05 03:26:21;;;;;;;25.97;24.27;;;;;;;;;;5037604;28;20425;-86
2021/10/05 03:28:48;;;;;;;26.23;24.53;;;;;;;;;;5037609;28;20492;-86
2021/10/05 03:31:16;;;;;;;26.70;25.00;;;;;;;;;;5037181;28;20418;-86
2021/10/05 03:33:44;;;;;;;26.87;24.90;;;;;;;;;;5037501;28;20415;-86
2021/10/05 03:36:12;;;;;;;26.20;24.50;;;;;;;;;;5037884;28;20433;-86
2021/10/05 03:38:40;;;;;;;25.87;24.27;;;;;;;;;;5036978;28;20406;-86
2021/10/05 03:41:10;;;;;;;29.13;26.67;;;;;;;;;;5037167;28;20424;-86
2021/10/05 03:43:37;;;;;;;26.83;25.10;;;;;;;;;;5036534;28;20457;-86
2021/10/05 03:46:05;;;;;;;26.93;25.13;;;;;;;;;;5036771;28;20438;-86
2021/10/05 03:48:33;;;;;;;25.90;24.20;;;;;;;;;;5037093;28;20461;-84
2021/10/05 03:51:00;;;;;;;25.60;24.00;;;;;;;;;;5036937;28;20818;-85
2021/10/05 03:53:28;;;;;;;26.93;25.13;;;;;;;;;;5036773;28;20421;-86
2021/10/05 03:55:57;;;;;;;27.03;25.30;;;;;;;;;;5036562;28;20880;-86
2021/10/05 03:58:26;;;;;;;26.93;25.07;;;;;;;;;;5036907;28;20406;-86
2021/10/05 04:00:54;;;;;;;27.77;25.87;;;;;;;;;;5036787;28;20406;-86
2021/10/05 04:03:23;;;;;;;26.03;24.33;;;;;;;;;;5036372;28;20472;-86
2021/10/05 04:05:51;;;;;;;26.90;25.10;;;;;;;;;;5036593;28;20928;-86
2021/10/05 04:08:18;;;;;;;27.00;25.20;;;;;;;;;;5036917;28;20437;-85
2021/10/05 04:10:46;;;;;;;26.63;24.90;;;;;;;;;;5036329;28;20446;-84
2021/10/05 04:13:13;;;;;;;26.10;24.47;;;;;;;;;;5036435;28;20437;-86
2021/10/05 04:15:42;;;;;;;26.80;25.00;;;;;;;;;;5036289;28;20442;-85
2021/10/05 04:18:10;;;;;;;27.77;25.87;;;;;;;;;;5036234;28;20406;-86
2021/10/05 04:20:37;;;;;;;26.27;24.50;;;;;;;;;;5036227;28;20866;-86
2021/10/05 04:23:05;;;;;;;25.93;24.33;;;;;;;;;;5034991;28;20461;-86
2021/10/05 04:25:32;;;;;;;25.93;24.03;;;;;;;;;;5036570;28;20454;-86
2021/10/05 04:27:59;;;;;;;26.70;24.90;;;;;;;;;;5036236;28;20458;-85
2021/10/05 04:30:27;;;;;;;25.63;23.73;;;;;;;;;;5036448;28;20435;-85
2021/10/05 04:32:56;;;;;;;25.70;23.90;;;;;;;;;;5035719;28;20933;-86
2021/10/05 04:35:23;;;;;;;25.90;24.30;;;;;;;;;;5035999;28;20439;-86
2021/10/05 04:37:50;;;;;;;26.20;24.40;;;;;;;;;;5036037;28;20800;-85
2021/10/05 04:40:18;;;;;;;26.17;24.37;;;;;;;;;;5036056;28;20430;-85
2021/10/05 04:42:45;;;;;;;26.33;24.53;;;;;;;;;;5034924;28;20461;-85
2021/10/05 04:45:13;;;;;;;26.00;24.30;;;;;;;;;;5036114;28;20862;-86
2021/10/05 04:47:40;;;;;;;25.97;24.27;;;;;;;;;;5035773;28;20429;-86
2021/10/05 04:50:10;;;;;;;26.43;24.80;;;;;;;;;;5035678;28;20453;-86
2021/10/05 04:52:37;;;;;;;26.00;24.40;;;;;;;;;;5035597;28;20409;-85
2021/10/05 04:55:05;;;;;;;26.30;24.60;;;;;;;;;;5035913;28;20419;-86
2021/10/05 04:57:32;;;;;;;26.60;24.90;;;;;;;;;;5035579;28;20441;-85
2021/10/05 05:00:00;;;;;;;25.80;24.17;;;;;;;;;;5035180;28;20421;-85
2021/10/05 05:02:28;;;;;;;26.80;25.10;;;;;;;;;;5035604;28;20458;-86
2021/10/05 05:04:56;;;;;;;26.17;24.40;;;;;;;;;;5035527;28;20425;-85
2021/10/05 05:07:25;;;;;;;26.10;24.30;;;;;;;;;;5035846;28;20418;-85
2021/10/05 05:09:52;;;;;;;26.07;24.27;;;;;;;;;;5035580;28;20466;-85
2021/10/05 05:12:19;;;;;;;26.30;24.40;;;;;;;;;;5035297;28;20790;-85
2021/10/05 05:14:47;;;;;;;27.27;25.47;;;;;;;;;;5035245;28;20428;-85
2021/10/05 05:17:15;;;;;;;25.57;24.07;;;;;;;;;;5035365;28;20443;-86
2021/10/05 05:19:42;;;;;;;27.00;25.10;;;;;;;;;;5035014;28;20483;-86
2021/10/05 05:22:09;;;;;;;26.83;24.93;;;;;;;;;;5035233;28;20475;-86
2021/10/05 05:24:38;;;;;;;25.33;23.73;;;;;;;;;;5035270;28;20872;-86
2021/10/05 05:27:05;;;;;;;26.73;24.93;;;;;;;;;;5035155;28;20447;-86
2021/10/05 05:29:33;;;;;;;25.27;23.50;;;;;;;;;;5035026;28;20968;-85
2021/10/05 05:32:00;;;;;;;26.80;25.00;;;;;;;;;;5035049;28;20438;-86
2021/10/05 05:34:28;;;;;;;26.00;24.30;;;;;;;;;;5035089;28;20440;-86
2021/10/05 05:36:55;;;;;;;27.07;25.07;;;;;;;;;;5034665;28;20957;-85
2021/10/05 05:39:23;;;;;;;27.30;25.50;;;;;;;;;;5034587;28;20511;-86
2021/10/05 05:41:52;;;;;;;27.83;25.93;;;;;;;;;;5034680;28;20443;-86
2021/10/05 05:44:20;;;;;;;26.90;25.00;;;;;;;;;;5033758;28;20464;-85
2021/10/05 05:46:48;;;;;;;25.70;24.00;;;;;;;;;;5033998;28;20427;-84
2021/10/05 05:49:15;;;;;;;26.97;24.97;;;;;;;;;;5035073;28;20835;-85
2021/10/05 05:51:43;;;;;;;27.77;25.87;;;;;;;;;;5034754;28;20414;-85
2021/10/05 05:54:10;;;;;;;27.10;24.93;;;;;;;;;;5034730;28;20777;-85
2021/10/05 05:56:37;;;;;;;28.13;26.03;;;;;;;;;;5034723;28;20443;-85
2021/10/05 05:59:06;;;;;;;26.03;24.27;;;;;;;;;;5034832;28;20431;-85
2021/10/05 06:01:34;;;;;;;25.73;24.03;;;;;;;;;;5034990;28;20940;-85
2021/10/05 06:04:02;;;;;;;26.93;25.13;;;;;;;;;;5034734;28;20519;-85
2021/10/05 06:06:32;;;;;;;27.83;25.83;;;;;;;;;;5034472;28;20439;-85
2021/10/05 06:09:00;;;;;;;26.93;25.13;;;;;;;;;;5034380;28;20449;-86
2021/10/05 06:11:30;;;;;;;27.50;25.67;;;;;;;;;;5033593;28;20539;-84
2021/10/05 06:13:57;;;;;;;27.10;25.30;;;;;;;;;;5033880;28;20840;-84
2021/10/05 06:16:26;;;;;;;28.20;26.30;;;;;;;;;;5033758;28;20463;-84
2021/10/05 06:18:53;;;;;;;26.80;24.80;;;;;;;;;;5033954;28;20490;-85
2021/10/05 06:21:21;;;;;;;29.23;27.33;;;;;;;;;;5034058;28;20444;-86
2021/10/05 06:23:48;;;;;;;26.93;25.20;;;;;;;;;;5033835;28;20919;-84
2021/10/05 06:26:16;;;;;;;27.50;25.47;;;;;;;;;;5033213;28;20819;-83
2021/10/05 06:28:44;;;;;;;27.90;26.10;;;;;;;;;;5032081;28;20426;-83
2021/10/05 06:31:11;;;;;;;25.83;24.13;;;;;;;;;;5033885;28;20471;-85
2021/10/05 06:33:40;;;;;;;26.60;24.80;;;;;;;;;;5034102;28;20417;-85
2021/10/05 06:36:09;;;;;;;26.80;24.77;;;;;;;;;;5034405;28;20418;-84
2021/10/05 06:38:36;;;;;;;28.03;26.13;;;;;;;;;;5033158;28;20410;-83
2021/10/05 06:41:04;;;;;;;27.90;26.03;;;;;;;;;;5033147;28;20767;-83
2021/10/05 06:43:31;;;;;;;27.67;25.57;;;;;;;;;;5033041;28;20446;-85
2021/10/05 06:45:59;;;;;;;27.33;25.50;;;;;;;;;;5033671;28;20440;-84
2021/10/05 06:48:26;;;;;;;27.10;25.20;;;;;;;;;;5033349;28;20434;-85
2021/10/05 06:50:55;;;;;;;30.20;27.70;;;;;;;;;;5033037;28;20414;-83
2021/10/05 06:53:22;;;;;;;29.90;27.50;;;;;;;;;;5033103;28;20431;-83
2021/10/05 06:55:51;;;;;;;28.50;26.27;;;;;;;;;;5032923;28;20414;-83
2021/10/05 06:58:18;;;;;;;31.00;28.53;;;;;;;;;;5033139;28;20463;-83
2021/10/05 07:00:45;;;;;;;27.27;25.43;;;;;;;;;;5032497;28;20436;-84
2021/10/05 07:03:13;;;;;;;27.80;26.10;;;;;;;;;;5032988;28;20465;-83
2021/10/05 07:05:40;;;;;;;28.73;26.63;;;;;;;;;;5033062;28;20426;-83
2021/10/05 07:08:10;;;;;;;27.60;25.40;;;;;;;;;;5033085;28;20458;-83
2021/10/05 07:10:38;;;;;;;26.87;25.07;;;;;;;;;;5032721;28;20439;-83
2021/10/05 07:13:06;;;;;;;27.13;25.23;;;;;;;;;;5031716;28;20507;-84
2021/10/05 07:15:33;;;;;;;28.10;26.20;;;;;;;;;;5032797;28;20638;-83
2021/10/05 07:18:01;;;;;;;27.70;25.90;;;;;;;;;;5032892;28;20952;-81
2021/10/05 07:20:29;;;;;;;26.67;24.97;;;;;;;;;;5032692;28;20407;-84
2021/10/05 07:22:57;;;;;;;27.10;25.37;;;;;;;;;;5032494;28;20906;-82
2021/10/05 07:25:26;;;;;;;26.90;25.10;;;;;;;;;;5032943;28;20422;-86
2021/10/05 07:27:54;;;;;;;27.30;25.60;;;;;;;;;;5031630;28;20919;-83
2021/10/05 07:30:23;;;;;;;26.30;24.70;;;;;;;;;;5032840;28;20479;-84
2021/10/05 07:32:52;;;;;;;26.13;24.43;;;;;;;;;;5032785;28;20505;-84
2021/10/05 07:35:19;;;;;;;27.20;25.27;;;;;;;;;;5032672;28;20418;-83
2021/10/05 07:37:47;;;;;;;27.27;25.43;;;;;;;;;;5032850;28;20416;-83
2021/10/05 07:40:16;;;;;;;24.63;23.07;;;;;;;;;;5031480;28;20447;-84
2021/10/05 07:42:45;;;;;;;27.20;25.20;;;;;;;;;;5031310;28;20447;-84
2021/10/05 07:45:12;;;;;;;26.93;25.23;;;;;;;;;;5032536;28;20528;-83
2021/10/05 07:47:40;;;;;;;26.70;25.03;;;;;;;;;;5032492;28;20436;-84
2021/10/05 07:50:07;;;;;;;27.70;25.80;;;;;;;;;;5032671;28;20498;-84
2021/10/05 07:52:35;;;;;;;26.53;24.93;;;;;;;;;;5032754;28;20447;-88
2021/10/05 07:55:02;;;;;;;28.13;26.33;;;;;;;;;;5032979;28;20418;-84
2021/10/05 07:57:30;;;;;;;27.03;25.30;;;;;;;;;;5032917;28;20421;-85
2021/10/05 07:59:58;;;;;;;26.90;25.20;;;;;;;;;;5032507;28;20418;-85
2021/10/05 08:02:26;;;;;;;27.00;25.27;;;;;;;;;;5032922;28;20427;-84
2021/10/05 08:04:53;;;;;;;26.70;25.10;;;;;;;;;;5032595;28;20453;-84
2021/10/05 08:07:21;;;;;;;24.80;23.30;;;;;;;;;;5033579;28;20455;-85
2021/10/05 08:09:48;;;;;;;26.57;24.97;;;;;;;;;;5036136;28;20436;-84
2021/10/05 08:12:15;;;;;;;26.87;24.97;;;;;;;;;;5036152;28;20491;-84
2021/10/05 08:14:43;;;;;;;25.03;23.50;;;;;;;;;;5036914;28;20439;-84
2021/10/05 08:17:12;;;;;;;24.80;23.20;;;;;;;;;;5036131;28;20436;-84
2021/10/05 08:19:40;;;;;;;25.03;23.53;;;;;;;;;;5034692;28;20491;-85
2021/10/05 08:22:07;;;;;;;24.67;23.17;;;;;;;;;;5036286;28;20410;-84
2021/10/05 08:24:35;;;;;;;25.90;24.30;;;;;;;;;;5035616;28;20472;-86
2021/10/05 08:27:05;;;;;;;26.53;24.83;;;;;;;;;;5036190;28;20415;-84
2021/10/05 08:29:32;;;;;;;24.40;22.80;;;;;;;;;;5034597;28;20422;-85
2021/10/05 08:32:00;;;;;;;25.27;23.67;;;;;;;;;;5036208;28;20447;-89
2021/10/05 08:34:29;;;;;;;24.50;22.87;;;;;;;;;;5036560;28;20432;-86
2021/10/05 08:36:56;;;;;;;23.67;22.23;;;;;;;;;;5036511;28;20455;-88
2021/10/05 08:39:24;;;;;;;23.30;22.00;;;;;;;;;;5036819;28;20436;-91
2021/10/05 08:41:51;;;;;;;23.77;22.33;;;;;;;;;;5036724;28;20443;-88
2021/10/05 08:44:22;;;;;;;23.77;22.33;;;;;;;;;;5036538;28;20461;-88
2021/10/05 08:46:49;;;;;;;24.80;23.40;;;;;;;;;;5036142;28;20419;-85
2021/10/05 08:49:17;;;;;;;22.80;21.40;;;;;;;;;;5035956;28;20446;-86
2021/10/05 08:51:46;;;;;;;23.57;22.17;;;;;;;;;;5035726;28;20444;-86
2021/10/05 08:54:13;;;;;;;23.43;21.93;;;;;;;;;;5035815;28;20425;-86
2021/10/05 08:56:42;;;;;;;23.63;22.13;;;;;;;;;;5035604;28;20523;-89
2021/10/05 08:59:09;;;;;;;23.00;21.80;;;;;;;;;;5036672;28;20417;-90
2021/10/05 09:01:37;;;;;;;20.30;19.20;;;;;;;;;;5035966;28;20438;-83
2021/10/05 09:04:05;;;;;;;22.27;21.07;;;;;;;;;;5034518;28;20473;-84
2021/10/05 09:06:32;;;;;;;22.77;21.30;;;;;;;;;;5035305;28;20426;-84
2021/10/05 09:09:05;;;;;;;21.33;20.17;;;;;;;;;;5034903;28;20411;-83
2021/10/05 09:11:38;;;;;;;23.53;22.23;;;;;;;;;;5035401;28;20449;-84
2021/10/05 09:14:06;;;;;;;21.83;20.53;;;;;;;;;;5035468;28;20547;-83
2021/10/05 09:16:34;;;;;;;23.30;21.80;;;;;;;;;;5035027;28;20491;-84
2021/10/05 09:19:03;;;;;;;22.03;20.83;;;;;;;;;;5033391;28;20519;-88
2021/10/05 09:21:31;;;;;;;22.40;21.20;;;;;;;;;;5035223;28;20440;-85
2021/10/05 09:24:02;;;;;;;21.70;20.50;;;;;;;;;;5034799;28;20480;-84
2021/10/05 09:26:38;;;;;;;21.77;20.57;;;;;;;;;;5034597;28;20451;-84
2021/10/05 09:29:09;;;;;;;22.13;20.93;;;;;;;;;;5034521;28;20451;-85
2021/10/05 09:31:47;;;;;;;22.20;20.87;;;;;;;;;;5033375;28;20941;-85
2021/10/05 09:34:14;;;;;;;22.07;20.77;;;;;;;;;;5034535;28;20446;-85
2021/10/05 09:36:43;;;;;;;22.53;21.23;;;;;;;;;;5034781;28;20430;-84
2021/10/05 09:39:10;;;;;;;22.17;20.93;;;;;;;;;;5034853;28;20439;-85
2021/10/05 09:41:39;;;;;;;22.33;21.07;;;;;;;;;;5034496;28;20406;-84
2021/10/05 09:44:07;;;;;;;21.00;19.80;;;;;;;;;;5034309;28;20827;-85
2021/10/05 09:46:35;;;;;;;20.70;19.60;;;;;;;;;;5034592;28;20418;-85
2021/10/05 09:49:03;;;;;;;21.33;20.13;;;;;;;;;;5032902;28;20468;-85
2021/10/05 09:51:30;;;;;;;21.73;20.43;;;;;;;;;;5034530;28;20445;-84
2021/10/05 09:53:59;;;;;;;21.70;20.13;;;;;;;;;;5034373;28;20440;-84
2021/10/05 09:56:28;;;;;;;21.17;19.97;;;;;;;;;;5034233;28;20502;-84
2021/10/05 09:58:57;;;;;;;21.30;20.13;;;;;;;;;;5034510;28;20421;-85
2021/10/05 10:01:25;;;;;;;20.70;19.53;;;;;;;;;;5034356;28;20456;-85
2021/10/05 10:03:53;;;;;;;20.77;19.47;;;;;;;;;;5034058;28;20502;-84
2021/10/05 10:06:21;;;;;;;20.90;19.80;;;;;;;;;;5034307;28;21247;-84
2021/10/05 10:08:50;;;;;;;20.10;19.00;;;;;;;;;;5034266;28;20430;-85
2021/10/05 10:11:18;;;;;;;20.10;19.00;;;;;;;;;;5034537;28;20433;-87
2021/10/05 10:13:46;;;;;;;21.00;19.80;;;;;;;;;;5034199;28;20808;-85
2021/10/05 10:16:15;;;;;;;20.10;19.00;;;;;;;;;;5034332;28;20422;-86
2021/10/05 10:18:52;;;;;;;20.70;19.50;;;;;;;;;;5034218;28;20507;-84
2021/10/05 10:21:26;;;;;;;20.07;18.87;;;;;;;;;;5033976;28;20429;-84
2021/10/05 10:24:07;;;;;;;21.50;20.30;;;;;;;;;;5033962;28;20469;-84
2021/10/05 10:26:36;;;;;;;20.23;19.03;;;;;;;;;;5033537;28;20424;-85
2021/10/05 10:29:04;;;;;;;21.20;20.00;;;;;;;;;;5033650;28;20426;-85
2021/10/05 10:31:34;;;;;;;20.70;19.50;;;;;;;;;;5033300;28;20414;-84
2021/10/05 10:34:03;;;;;;;21.57;20.37;;;;;;;;;;5033837;28;20475;-84
2021/10/05 10:36:31;;;;;;;21.10;20.00;;;;;;;;;;5033707;28;20444;-85
2021/10/05 10:39:06;;;;;;;22.00;20.60;;;;;;;;;;5033237;28;20415;-85
2021/10/05 10:41:34;;;;;;;20.63;19.53;;;;;;;;;;5033327;28;20443;-85
2021/10/05 10:44:04;;;;;;;20.67;19.57;;;;;;;;;;5033200;28;20845;-85
2021/10/05 10:46:33;;;;;;;20.90;19.60;;;;;;;;;;5033601;28;20455;-83
2021/10/05 10:49:02;;;;;;;20.87;19.77;;;;;;;;;;5033110;28;20448;-84
2021/10/05 10:51:31;;;;;;;20.60;19.50;;;;;;;;;;5033194;28;20451;-84
2021/10/05 10:54:00;;;;;;;20.50;19.30;;;;;;;;;;5033296;28;20499;-85
2021/10/05 10:56:32;;;;;;;21.47;20.30;;;;;;;;;;5033551;28;20415;-85
2021/10/05 10:59:00;;;;;;;20.37;19.27;;;;;;;;;;5033564;28;20422;-87
2021/10/05 11:01:36;;;;;;;21.37;20.17;;;;;;;;;;5033846;28;20445;-85
2021/10/05 11:04:05;;;;;;;20.63;19.47;;;;;;;;;;5033449;28;20448;-85
2021/10/05 11:06:33;;;;;;;20.90;19.17;;;;;;;;;;5033652;28;20895;-84
2021/10/05 11:09:01;;;;;;;19.97;18.87;;;;;;;;;;5034007;28;20441;-84
2021/10/05 11:11:36;;;;;;;20.60;19.50;;;;;;;;;;5033244;28;20937;-85
2021/10/05 11:14:03;;;;;;;20.40;19.30;;;;;;;;;;4993787;28;20414;-84
2021/10/05 11:16:32;;;;;;;20.17;18.97;;;;;;;;;;4993833;28;20458;-85
2021/10/05 11:19:20;;;;;;;20.47;19.37;;;;;;;;;;4992595;28;20479;-85
2021/10/05 11:21:50;;;;;;;20.50;19.20;;;;;;;;;;4989170;28;20424;-85
2021/10/05 11:24:19;;;;;;;20.70;19.60;;;;;;;;;;4994281;28;20485;-85
2021/10/05 11:26:48;;;;;;;19.93;18.83;;;;;;;;;;4993935;28;20816;-85
2021/10/05 11:29:23;;;;;;;21.00;19.40;;;;;;;;;;4993512;28;20835;-85
2021/10/05 11:31:51;;;;;;;21.00;19.80;;;;;;;;;;4993829;28;20413;-85
2021/10/05 11:34:19;;;;;;;20.23;19.13;;;;;;;;;;4993834;28;20424;-85
2021/10/05 11:36:47;;;;;;;19.37;18.27;;;;;;;;;;4993717;28;20416;-85
2021/10/05 11:39:21;;;;;;;20.50;19.20;;;;;;;;;;4993592;28;20927;-85
2021/10/05 11:41:50;;;;;;;19.80;18.70;;;;;;;;;;4992598;28;20434;-84
2021/10/05 11:44:19;;;;;;;20.50;19.30;;;;;;;;;;4997374;28;20460;-85
2021/10/05 11:46:56;;;;;;;20.30;19.20;;;;;;;;;;4997282;28;20436;-84
2021/10/05 11:49:24;;;;;;;20.33;19.23;;;;;;;;;;4997395;28;20474;-84
2021/10/05 11:51:54;;;;;;;19.60;18.60;;;;;;;;;;4997468;28;20777;-84
2021/10/05 11:54:24;;;;;;;20.30;19.20;;;;;;;;;;4997119;28;20540;-85
2021/10/05 11:56:52;;;;;;;21.57;20.37;;;;;;;;;;4997025;28;20420;-84
2021/10/05 11:59:26;;;;;;;20.57;19.17;;;;;;;;;;4996824;28;20451;-85
2021/10/05 12:01:57;;;;;;;20.33;19.23;;;;;;;;;;4996997;28;20905;-84
2021/10/05 12:04:25;;;;;;;21.57;20.47;;;;;;;;;;4997127;28;20445;-84
2021/10/05 12:06:54;;;;;;;20.97;19.87;;;;;;;;;;4995897;28;20906;-84
2021/10/05 12:09:26;;;;;;;22.30;21.10;;;;;;;;;;4996786;28;20927;-85
2021/10/05 12:11:57;;;;;;;22.00;20.80;;;;;;;;;;4997184;28;20468;-84
2021/10/05 12:14:27;;;;;;;21.23;20.13;;;;;;;;;;4995759;28;20479;-85
2021/10/05 12:16:57;;;;;;;22.20;21.00;;;;;;;;;;4996815;28;20465;-84
2021/10/05 12:19:25;;;;;;;20.47;19.37;;;;;;;;;;4995761;28;20460;-85
2021/10/05 12:21:53;;;;;;;20.60;19.40;;;;;;;;;;5010314;28;20469;-85
2021/10/05 12:24:21;;;;;;;20.17;19.07;;;;;;;;;;5016102;28;20419;-84
2021/10/05 12:26:50;;;;;;;19.80;18.70;;;;;;;;;;5016334;28;20844;-85
2021/10/05 12:29:18;;;;;;;20.73;19.63;;;;;;;;;;5016442;28;20428;-84
2021/10/05 12:31:53;;;;;;;19.97;18.87;;;;;;;;;;5028082;28;20449;-82
2021/10/05 12:34:21;;;;;;;20.97;19.80;;;;;;;;;;5035986;28;20435;-84
2021/10/05 12:36:50;;;;;;;21.13;19.90;;;;;;;;;;5034324;28;20514;-84
2021/10/05 12:39:18;;;;;;;20.70;19.37;;;;;;;;;;5035505;28;20933;-85
2021/10/05 12:41:58;;;;;;;20.10;19.00;;;;;;;;;;5035855;28;20449;-85
2021/10/05 12:44:25;;;;;;;20.13;19.03;;;;;;;;;;5035506;28;20437;-85
2021/10/05 12:46:54;;;;;;;20.57;19.37;;;;;;;;;;5035861;28;20427;-84
2021/10/05 12:49:21;;;;;;;19.77;18.47;;;;;;;;;;5035386;28;20465;-85
2021/10/05 12:51:50;;;;;;;20.10;19.00;;;;;;;;;;5035888;28;20415;-85
2021/10/05 12:54:17;;;;;;;21.07;19.97;;;;;;;;;;5035450;28;20741;-85
2021/10/05 12:56:46;;;;;;;21.93;20.63;;;;;;;;;;5035467;28;20459;-85
2021/10/05 12:59:15;;;;;;;20.83;19.50;;;;;;;;;;5035560;28;20497;-85
2021/10/05 13:01:42;;;;;;;21.10;20.00;;;;;;;;;;5035493;28;20914;-84
2021/10/05 13:04:11;;;;;;;20.10;19.00;;;;;;;;;;5035465;28;20410;-85
2021/10/05 13:06:38;;;;;;;20.90;19.70;;;;;;;;;;5035100;28;20480;-85
2021/10/05 13:09:06;;;;;;;20.20;19.10;;;;;;;;;;5035228;28;20422;-90
2021/10/05 13:11:34;;;;;;;20.40;19.30;;;;;;;;;;5035674;28;20441;-88
2021/10/05 13:14:01;;;;;;;20.43;19.33;;;;;;;;;;5036218;28;20498;-87
2021/10/05 13:16:30;;;;;;;20.10;18.90;;;;;;;;;;5035717;28;20428;-86
2021/10/05 13:18:58;;;;;;;19.47;18.47;;;;;;;;;;5036502;28;20471;-86
2021/10/05 13:21:25;;;;;;;19.80;18.70;;;;;;;;;;5036213;28;20424;-87
2021/10/05 13:23:52;;;;;;;20.43;19.33;;;;;;;;;;5036107;28;20790;-87
2021/10/05 13:26:20;;;;;;;19.93;18.70;;;;;;;;;;5036481;28;20492;-86
2021/10/05 13:28:48;;;;;;;20.87;19.57;;;;;;;;;;5036320;28;20419;-87
2021/10/05 13:31:15;;;;;;;21.63;20.43;;;;;;;;;;5034613;28;20407;-82
2021/10/05 13:33:44;;;;;;;21.23;20.03;;;;;;;;;;5034162;28;20411;-82
2021/10/05 13:36:12;;;;;;;21.00;19.90;;;;;;;;;;5034879;28;20418;-82
2021/10/05 13:38:39;;;;;;;20.30;19.20;;;;;;;;;;5033851;28;20428;-86
2021/10/05 13:41:08;;;;;;;19.80;18.70;;;;;;;;;;5034869;28;20496;-89
2021/10/05 13:43:36;;;;;;;20.97;19.80;;;;;;;;;;5033936;28;20426;-85
2021/10/05 13:46:03;;;;;;;20.53;19.33;;;;;;;;;;5034788;28;20491;-85
2021/10/05 13:48:31;;;;;;;21.23;19.83;;;;;;;;;;5034723;28;20490;-88
2021/10/05 13:51:00;;;;;;;20.00;18.90;;;;;;;;;;5035360;28;20451;-86
2021/10/05 13:53:27;;;;;;;20.50;19.30;;;;;;;;;;5034734;28;20423;-85
2021/10/05 13:55:54;;;;;;;20.60;19.40;;;;;;;;;;5034791;28;20437;-85
2021/10/05 13:58:22;;;;;;;20.43;19.33;;;;;;;;;;5032944;28;20445;-84
2021/10/05 14:00:49;;;;;;;20.17;19.07;;;;;;;;;;5034237;28;20443;-85
2021/10/05 14:03:17;;;;;;;20.63;19.53;;;;;;;;;;5033534;28;20455;-88
2021/10/05 14:05:44;;;;;;;20.60;19.50;;;;;;;;;;5033170;28;20474;-80
2021/10/05 14:08:13;;;;;;;20.90;19.70;;;;;;;;;;5034222;28;20424;-80
2021/10/05 14:10:41;;;;;;;21.00;19.80;;;;;;;;;;5036274;28;20439;-88
2021/10/05 14:13:08;;;;;;;20.73;19.60;;;;;;;;;;5033997;28;20462;-80
2021/10/05 14:15:35;;;;;;;20.60;19.50;;;;;;;;;;5033387;28;20457;-80
2021/10/05 14:18:06;;;;;;;20.40;19.23;;;;;;;;;;5033497;28;20414;-80
2021/10/05 14:20:34;;;;;;;22.10;20.90;;;;;;;;;;5032961;28;20480;-80
2021/10/05 14:23:01;;;;;;;21.80;20.70;;;;;;;;;;5032013;28;20963;-80